sensor_id;sensor_type;location;lat;lon;timestamp;P1;durP1;ratioP1;P2;durP2;ratioP2
13609;SDS011;6876;50.788;4.940;2023-08-12T00:01:31;15.25;;;13.90;;
13609;SDS011;6876;50.788;4.940;2023-08-12T00:04:20;14.50;;;13.10;;
13609;SDS011;6876;50.788;4.940;2023-08-12T00:07:07;15.23;;;13.82;;
13609;SDS011;6876;50.788;4.940;2023-08-12T00:09:54;14.75;;;13.18;;
13609;SDS011;6876;50.788;4.940;2023-08-12T00:12:42;14.88;;;12.90;;
13609;SDS011;6876;50.788;4.940;2023-08-12T00:15:29;18.15;;;16.35;;
13609;SDS011;6876;50.788;4.940;2023-08-12T00:18:17;18.15;;;16.70;;
13609;SDS011;6876;50.788;4.940;2023-08-12T00:21:09;18.73;;;17.23;;
13609;SDS011;6876;50.788;4.940;2023-08-12T00:23:56;20.60;;;18.48;;
13609;SDS011;6876;50.788;4.940;2023-08-12T00:26:43;20.83;;;18.92;;
13609;SDS011;6876;50.788;4.940;2023-08-12T00:29:31;20.08;;;18.33;;
13609;SDS011;6876;50.788;4.940;2023-08-12T00:32:18;20.60;;;18.58;;
13609;SDS011;6876;50.788;4.940;2023-08-12T00:35:06;14.45;;;12.95;;
13609;SDS011;6876;50.788;4.940;2023-08-12T00:37:55;28.23;;;25.92;;
13609;SDS011;6876;50.788;4.940;2023-08-12T00:40:42;13.48;;;9.70;;
13609;SDS011;6876;50.788;4.940;2023-08-12T00:43:30;31.77;;;29.48;;
13609;SDS011;6876;50.788;4.940;2023-08-12T00:46:17;32.38;;;30.05;;
13609;SDS011;6876;50.788;4.940;2023-08-12T00:49:04;35.35;;;32.85;;
13609;SDS011;6876;50.788;4.940;2023-08-12T00:51:52;32.20;;;30.10;;
13609;SDS011;6876;50.788;4.940;2023-08-12T00:54:41;36.88;;;34.20;;
13609;SDS011;6876;50.788;4.940;2023-08-12T00:57:29;35.17;;;32.78;;
13609;SDS011;6876;50.788;4.940;2023-08-12T01:00:16;14.50;;;11.48;;
13609;SDS011;6876;50.788;4.940;2023-08-12T01:03:06;33.72;;;31.15;;
13609;SDS011;6876;50.788;4.940;2023-08-12T01:05:53;30.65;;;28.20;;
13609;SDS011;6876;50.788;4.940;2023-08-12T01:08:42;12.98;;;9.73;;
13609;SDS011;6876;50.788;4.940;2023-08-12T01:11:32;13.85;;;11.27;;
13609;SDS011;6876;50.788;4.940;2023-08-12T01:14:25;10.40;;;8.98;;
13609;SDS011;6876;50.788;4.940;2023-08-12T01:17:19;13.20;;;10.15;;
13609;SDS011;6876;50.788;4.940;2023-08-12T01:20:07;12.57;;;10.50;;
13609;SDS011;6876;50.788;4.940;2023-08-12T01:22:58;11.25;;;9.98;;
13609;SDS011;6876;50.788;4.940;2023-08-12T01:25:59;11.73;;;9.70;;
13609;SDS011;6876;50.788;4.940;2023-08-12T01:28:46;11.82;;;9.60;;
13609;SDS011;6876;50.788;4.940;2023-08-12T01:31:34;26.00;;;23.80;;
13609;SDS011;6876;50.788;4.940;2023-08-12T01:34:32;27.73;;;25.73;;
13609;SDS011;6876;50.788;4.940;2023-08-12T01:37:26;29.67;;;27.50;;
13609;SDS011;6876;50.788;4.940;2023-08-12T01:40:17;28.42;;;25.92;;
13609;SDS011;6876;50.788;4.940;2023-08-12T01:43:06;25.75;;;23.48;;
13609;SDS011;6876;50.788;4.940;2023-08-12T01:45:53;27.75;;;25.50;;
13609;SDS011;6876;50.788;4.940;2023-08-12T01:48:41;29.20;;;26.80;;
13609;SDS011;6876;50.788;4.940;2023-08-12T01:51:29;28.48;;;26.30;;
13609;SDS011;6876;50.788;4.940;2023-08-12T01:54:16;29.92;;;27.75;;
13609;SDS011;6876;50.788;4.940;2023-08-12T01:57:05;33.08;;;30.48;;
13609;SDS011;6876;50.788;4.940;2023-08-12T01:59:53;33.72;;;30.92;;
13609;SDS011;6876;50.788;4.940;2023-08-12T02:02:41;35.38;;;32.50;;
13609;SDS011;6876;50.788;4.940;2023-08-12T02:05:31;32.22;;;29.67;;
13609;SDS011;6876;50.788;4.940;2023-08-12T02:08:18;29.50;;;27.30;;
13609;SDS011;6876;50.788;4.940;2023-08-12T02:11:07;25.42;;;23.35;;
13609;SDS011;6876;50.788;4.940;2023-08-12T02:13:55;24.60;;;22.63;;
13609;SDS011;6876;50.788;4.940;2023-08-12T02:16:43;23.73;;;21.30;;
13609;SDS011;6876;50.788;4.940;2023-08-12T02:19:30;23.77;;;21.73;;
13609;SDS011;6876;50.788;4.940;2023-08-12T02:22:17;19.73;;;18.10;;
13609;SDS011;6876;50.788;4.940;2023-08-12T02:25:05;20.77;;;18.75;;
13609;SDS011;6876;50.788;4.940;2023-08-12T02:27:53;22.55;;;20.42;;
13609;SDS011;6876;50.788;4.940;2023-08-12T02:30:43;24.25;;;22.25;;
13609;SDS011;6876;50.788;4.940;2023-08-12T02:33:30;27.10;;;24.80;;
13609;SDS011;6876;50.788;4.940;2023-08-12T02:36:17;27.48;;;24.55;;
13609;SDS011;6876;50.788;4.940;2023-08-12T02:39:05;24.48;;;22.40;;
13609;SDS011;6876;50.788;4.940;2023-08-12T02:41:52;21.17;;;19.13;;
13609;SDS011;6876;50.788;4.940;2023-08-12T02:44:39;20.52;;;18.67;;
13609;SDS011;6876;50.788;4.940;2023-08-12T02:47:28;20.70;;;19.15;;
13609;SDS011;6876;50.788;4.940;2023-08-12T02:50:15;19.90;;;18.42;;
13609;SDS011;6876;50.788;4.940;2023-08-12T02:53:03;21.63;;;19.83;;
13609;SDS011;6876;50.788;4.940;2023-08-12T02:55:51;21.73;;;19.75;;
13609;SDS011;6876;50.788;4.940;2023-08-12T02:58:38;22.33;;;20.30;;
13609;SDS011;6876;50.788;4.940;2023-08-12T03:01:25;20.15;;;18.23;;
13609;SDS011;6876;50.788;4.940;2023-08-12T03:04:14;20.20;;;18.30;;
13609;SDS011;6876;50.788;4.940;2023-08-12T03:07:02;19.73;;;17.98;;
13609;SDS011;6876;50.788;4.940;2023-08-12T03:09:49;17.83;;;16.30;;
13609;SDS011;6876;50.788;4.940;2023-08-12T03:12:36;17.85;;;16.13;;
13609;SDS011;6876;50.788;4.940;2023-08-12T03:15:24;21.15;;;19.42;;
13609;SDS011;6876;50.788;4.940;2023-08-12T03:18:11;22.70;;;20.63;;
13609;SDS011;6876;50.788;4.940;2023-08-12T03:21:00;21.55;;;19.90;;
13609;SDS011;6876;50.788;4.940;2023-08-12T03:23:52;23.83;;;21.95;;
13609;SDS011;6876;50.788;4.940;2023-08-12T03:26:40;24.20;;;22.40;;
13609;SDS011;6876;50.788;4.940;2023-08-12T03:29:27;24.63;;;22.70;;
13609;SDS011;6876;50.788;4.940;2023-08-12T03:32:14;27.55;;;25.48;;
13609;SDS011;6876;50.788;4.940;2023-08-12T03:35:02;22.85;;;20.90;;
13609;SDS011;6876;50.788;4.940;2023-08-12T03:37:50;28.77;;;26.58;;
13609;SDS011;6876;50.788;4.940;2023-08-12T03:40:39;23.38;;;21.48;;
13609;SDS011;6876;50.788;4.940;2023-08-12T03:43:27;26.00;;;23.77;;
13609;SDS011;6876;50.788;4.940;2023-08-12T03:46:15;21.90;;;20.20;;
13609;SDS011;6876;50.788;4.940;2023-08-12T03:49:03;21.85;;;20.00;;
13609;SDS011;6876;50.788;4.940;2023-08-12T03:51:51;24.10;;;22.20;;
13609;SDS011;6876;50.788;4.940;2023-08-12T03:54:39;25.27;;;23.17;;
13609;SDS011;6876;50.788;4.940;2023-08-12T03:57:26;31.83;;;29.33;;
13609;SDS011;6876;50.788;4.940;2023-08-12T04:00:14;29.67;;;27.30;;
13609;SDS011;6876;50.788;4.940;2023-08-12T04:03:02;26.95;;;24.98;;
13609;SDS011;6876;50.788;4.940;2023-08-12T04:05:52;27.30;;;25.23;;
13609;SDS011;6876;50.788;4.940;2023-08-12T04:08:43;28.38;;;26.20;;
13609;SDS011;6876;50.788;4.940;2023-08-12T04:11:34;29.15;;;27.08;;
13609;SDS011;6876;50.788;4.940;2023-08-12T04:14:21;27.13;;;25.00;;
13609;SDS011;6876;50.788;4.940;2023-08-12T04:17:11;30.42;;;28.08;;
13609;SDS011;6876;50.788;4.940;2023-08-12T04:20:00;31.92;;;29.48;;
13609;SDS011;6876;50.788;4.940;2023-08-12T04:22:51;28.48;;;26.48;;
13609;SDS011;6876;50.788;4.940;2023-08-12T04:25:38;29.02;;;26.75;;
13609;SDS011;6876;50.788;4.940;2023-08-12T04:28:27;28.20;;;26.13;;
13609;SDS011;6876;50.788;4.940;2023-08-12T04:31:14;30.00;;;27.83;;
13609;SDS011;6876;50.788;4.940;2023-08-12T04:34:02;30.65;;;28.45;;
13609;SDS011;6876;50.788;4.940;2023-08-12T04:36:50;31.00;;;28.77;;
13609;SDS011;6876;50.788;4.940;2023-08-12T04:39:37;29.20;;;27.27;;
13609;SDS011;6876;50.788;4.940;2023-08-12T04:42:25;27.40;;;25.65;;
13609;SDS011;6876;50.788;4.940;2023-08-12T04:45:13;28.52;;;26.30;;
13609;SDS011;6876;50.788;4.940;2023-08-12T04:48:01;27.65;;;25.63;;
13609;SDS011;6876;50.788;4.940;2023-08-12T04:50:48;30.33;;;28.17;;
13609;SDS011;6876;50.788;4.940;2023-08-12T04:53:36;33.97;;;31.83;;
13609;SDS011;6876;50.788;4.940;2023-08-12T04:56:23;29.42;;;27.52;;
13609;SDS011;6876;50.788;4.940;2023-08-12T04:59:10;28.73;;;26.83;;
13609;SDS011;6876;50.788;4.940;2023-08-12T05:01:59;30.50;;;28.50;;
13609;SDS011;6876;50.788;4.940;2023-08-12T05:04:47;29.83;;;27.83;;
13609;SDS011;6876;50.788;4.940;2023-08-12T05:07:35;28.38;;;26.38;;
13609;SDS011;6876;50.788;4.940;2023-08-12T05:10:22;31.25;;;29.33;;
13609;SDS011;6876;50.788;4.940;2023-08-12T05:13:09;9.93;;;8.30;;
13609;SDS011;6876;50.788;4.940;2023-08-12T05:15:57;32.58;;;30.58;;
13609;SDS011;6876;50.788;4.940;2023-08-12T05:18:45;30.27;;;28.23;;
13609;SDS011;6876;50.788;4.940;2023-08-12T05:21:33;24.40;;;22.73;;
13609;SDS011;6876;50.788;4.940;2023-08-12T05:24:20;18.30;;;16.92;;
13609;SDS011;6876;50.788;4.940;2023-08-12T05:27:07;22.77;;;21.17;;
13609;SDS011;6876;50.788;4.940;2023-08-12T05:29:55;25.98;;;24.35;;
13609;SDS011;6876;50.788;4.940;2023-08-12T05:32:42;27.55;;;25.08;;
13609;SDS011;6876;50.788;4.940;2023-08-12T05:35:33;8.85;;;7.95;;
13609;SDS011;6876;50.788;4.940;2023-08-12T05:38:21;8.52;;;7.82;;
13609;SDS011;6876;50.788;4.940;2023-08-12T05:41:08;9.38;;;7.95;;
13609;SDS011;6876;50.788;4.940;2023-08-12T05:43:55;9.13;;;8.27;;
13609;SDS011;6876;50.788;4.940;2023-08-12T05:46:43;9.00;;;7.55;;
13609;SDS011;6876;50.788;4.940;2023-08-12T05:49:30;7.57;;;6.78;;
13609;SDS011;6876;50.788;4.940;2023-08-12T05:52:19;7.07;;;6.47;;
13609;SDS011;6876;50.788;4.940;2023-08-12T05:55:06;6.88;;;6.28;;
13609;SDS011;6876;50.788;4.940;2023-08-12T05:57:54;6.53;;;5.93;;
13609;SDS011;6876;50.788;4.940;2023-08-12T06:00:41;8.18;;;6.55;;
13609;SDS011;6876;50.788;4.940;2023-08-12T06:03:30;8.15;;;5.45;;
13609;SDS011;6876;50.788;4.940;2023-08-12T06:06:18;5.13;;;4.68;;
13609;SDS011;6876;50.788;4.940;2023-08-12T06:09:06;4.93;;;4.53;;
13609;SDS011;6876;50.788;4.940;2023-08-12T06:11:53;6.18;;;5.65;;
13609;SDS011;6876;50.788;4.940;2023-08-12T06:14:41;4.10;;;3.60;;
13609;SDS011;6876;50.788;4.940;2023-08-12T06:17:28;4.05;;;3.70;;
13609;SDS011;6876;50.788;4.940;2023-08-12T06:20:16;4.00;;;3.60;;
13609;SDS011;6876;50.788;4.940;2023-08-12T06:23:03;3.42;;;3.13;;
13609;SDS011;6876;50.788;4.940;2023-08-12T06:25:52;2.90;;;2.70;;
13609;SDS011;6876;50.788;4.940;2023-08-12T06:28:39;3.42;;;3.08;;
13609;SDS011;6876;50.788;4.940;2023-08-12T06:31:27;3.00;;;2.70;;
13609;SDS011;6876;50.788;4.940;2023-08-12T06:34:14;2.72;;;2.50;;
13609;SDS011;6876;50.788;4.940;2023-08-12T06:37:01;2.60;;;2.40;;
13609;SDS011;6876;50.788;4.940;2023-08-12T06:39:49;2.45;;;2.35;;
13609;SDS011;6876;50.788;4.940;2023-08-12T06:42:37;2.67;;;2.47;;
13609;SDS011;6876;50.788;4.940;2023-08-12T06:45:25;2.00;;;1.90;;
13609;SDS011;6876;50.788;4.940;2023-08-12T06:48:12;2.40;;;2.20;;
13609;SDS011;6876;50.788;4.940;2023-08-12T06:50:59;2.53;;;1.60;;
13609;SDS011;6876;50.788;4.940;2023-08-12T06:53:52;1.70;;;1.60;;
13609;SDS011;6876;50.788;4.940;2023-08-12T06:56:39;1.65;;;1.55;;
13609;SDS011;6876;50.788;4.940;2023-08-12T06:59:28;2.30;;;1.88;;
13609;SDS011;6876;50.788;4.940;2023-08-12T07:02:15;1.70;;;1.60;;
13609;SDS011;6876;50.788;4.940;2023-08-12T07:05:03;1.60;;;1.50;;
13609;SDS011;6876;50.788;4.940;2023-08-12T07:07:50;1.50;;;1.40;;
13609;SDS011;6876;50.788;4.940;2023-08-12T07:10:38;1.50;;;1.40;;
13609;SDS011;6876;50.788;4.940;2023-08-12T07:13:25;1.52;;;1.42;;
13609;SDS011;6876;50.788;4.940;2023-08-12T07:16:14;1.58;;;1.48;;
13609;SDS011;6876;50.788;4.940;2023-08-12T07:19:01;1.40;;;1.30;;
13609;SDS011;6876;50.788;4.940;2023-08-12T07:21:49;2.47;;;1.00;;
13609;SDS011;6876;50.788;4.940;2023-08-12T07:24:36;1.42;;;1.33;;
13609;SDS011;6876;50.788;4.940;2023-08-12T07:27:23;0.88;;;0.88;;
13609;SDS011;6876;50.788;4.940;2023-08-12T07:30:11;1.17;;;0.85;;
13609;SDS011;6876;50.788;4.940;2023-08-12T07:33:00;0.80;;;0.80;;
13609;SDS011;6876;50.788;4.940;2023-08-12T07:35:47;3.40;;;0.88;;
13609;SDS011;6876;50.788;4.940;2023-08-12T07:38:34;2.70;;;0.95;;
13609;SDS011;6876;50.788;4.940;2023-08-12T07:41:22;1.02;;;0.70;;
13609;SDS011;6876;50.788;4.940;2023-08-12T07:44:12;0.82;;;0.60;;
13609;SDS011;6876;50.788;4.940;2023-08-12T07:47:00;1.30;;;0.50;;
13609;SDS011;6876;50.788;4.940;2023-08-12T07:49:48;0.63;;;0.63;;
13609;SDS011;6876;50.788;4.940;2023-08-12T07:52:36;0.47;;;0.45;;
13609;SDS011;6876;50.788;4.940;2023-08-12T07:55:23;0.57;;;0.40;;
13609;SDS011;6876;50.788;4.940;2023-08-12T07:58:10;0.73;;;0.40;;
13609;SDS011;6876;50.788;4.940;2023-08-12T08:01:01;0.52;;;0.52;;
13609;SDS011;6876;50.788;4.940;2023-08-12T08:03:50;0.40;;;0.40;;
13609;SDS011;6876;50.788;4.940;2023-08-12T08:06:38;0.45;;;0.45;;
13609;SDS011;6876;50.788;4.940;2023-08-12T08:09:26;1.40;;;0.50;;
13609;SDS011;6876;50.788;4.940;2023-08-12T08:12:13;0.40;;;0.40;;
13609;SDS011;6876;50.788;4.940;2023-08-12T08:15:00;0.73;;;0.55;;
13609;SDS011;6876;50.788;4.940;2023-08-12T08:17:48;0.68;;;0.50;;
13609;SDS011;6876;50.788;4.940;2023-08-12T08:20:36;1.52;;;0.52;;
13609;SDS011;6876;50.788;4.940;2023-08-12T08:23:24;0.90;;;0.60;;
13609;SDS011;6876;50.788;4.940;2023-08-12T08:26:12;3.58;;;0.68;;
13609;SDS011;6876;50.788;4.940;2023-08-12T08:29:01;1.50;;;0.50;;
13609;SDS011;6876;50.788;4.940;2023-08-12T08:31:48;0.50;;;0.50;;
13609;SDS011;6876;50.788;4.940;2023-08-12T08:34:35;3.17;;;0.80;;
13609;SDS011;6876;50.788;4.940;2023-08-12T08:37:23;2.75;;;0.80;;
13609;SDS011;6876;50.788;4.940;2023-08-12T08:40:12;0.80;;;0.80;;
13609;SDS011;6876;50.788;4.940;2023-08-12T08:43:00;1.00;;;0.70;;
13609;SDS011;6876;50.788;4.940;2023-08-12T08:45:50;0.98;;;0.70;;
13609;SDS011;6876;50.788;4.940;2023-08-12T08:48:39;1.02;;;0.82;;
13609;SDS011;6876;50.788;4.940;2023-08-12T08:51:27;0.88;;;0.82;;
13609;SDS011;6876;50.788;4.940;2023-08-12T08:54:18;1.88;;;1.30;;
13609;SDS011;6876;50.788;4.940;2023-08-12T08:57:07;1.20;;;1.17;;
13609;SDS011;6876;50.788;4.940;2023-08-12T08:59:55;1.92;;;1.83;;
13609;SDS011;6876;50.788;4.940;2023-08-12T09:02:43;2.63;;;2.15;;
13609;SDS011;6876;50.788;4.940;2023-08-12T09:05:31;1.88;;;1.77;;
13609;SDS011;6876;50.788;4.940;2023-08-12T09:08:20;2.00;;;1.90;;
13609;SDS011;6876;50.788;4.940;2023-08-12T09:11:09;2.20;;;2.10;;
13609;SDS011;6876;50.788;4.940;2023-08-12T09:14:00;2.10;;;1.85;;
13609;SDS011;6876;50.788;4.940;2023-08-12T09:16:47;2.00;;;1.90;;
13609;SDS011;6876;50.788;4.940;2023-08-12T09:19:35;4.90;;;2.30;;
13609;SDS011;6876;50.788;4.940;2023-08-12T09:22:23;2.00;;;1.90;;
13609;SDS011;6876;50.788;4.940;2023-08-12T09:25:11;2.03;;;1.83;;
13609;SDS011;6876;50.788;4.940;2023-08-12T09:27:58;1.80;;;1.70;;
13609;SDS011;6876;50.788;4.940;2023-08-12T09:30:51;1.90;;;1.80;;
13609;SDS011;6876;50.788;4.940;2023-08-12T09:33:38;1.83;;;1.73;;
13609;SDS011;6876;50.788;4.940;2023-08-12T09:36:29;1.17;;;1.10;;
13609;SDS011;6876;50.788;4.940;2023-08-12T09:39:17;0.90;;;0.90;;
13609;SDS011;6876;50.788;4.940;2023-08-12T09:42:06;1.00;;;0.93;;
13609;SDS011;6876;50.788;4.940;2023-08-12T09:44:53;7.15;;;1.60;;
13609;SDS011;6876;50.788;4.940;2023-08-12T09:47:42;0.80;;;0.80;;
13609;SDS011;6876;50.788;4.940;2023-08-12T09:50:30;0.77;;;0.70;;
13609;SDS011;6876;50.788;4.940;2023-08-12T09:53:17;1.17;;;0.90;;
13609;SDS011;6876;50.788;4.940;2023-08-12T09:56:06;3.45;;;0.95;;
13609;SDS011;6876;50.788;4.940;2023-08-12T09:58:54;0.90;;;0.70;;
13609;SDS011;6876;50.788;4.940;2023-08-12T10:01:42;0.80;;;0.68;;
13609;SDS011;6876;50.788;4.940;2023-08-12T10:04:35;0.95;;;0.70;;
13609;SDS011;6876;50.788;4.940;2023-08-12T10:07:26;2.03;;;0.93;;
13609;SDS011;6876;50.788;4.940;2023-08-12T10:10:14;1.30;;;0.80;;
13609;SDS011;6876;50.788;4.940;2023-08-12T10:13:02;3.50;;;0.80;;
13609;SDS011;6876;50.788;4.940;2023-08-12T10:15:52;1.38;;;0.82;;
13609;SDS011;6876;50.788;4.940;2023-08-12T10:18:40;1.02;;;0.77;;
13609;SDS011;6876;50.788;4.940;2023-08-12T10:21:30;0.60;;;0.60;;
13609;SDS011;6876;50.788;4.940;2023-08-12T10:24:18;1.13;;;0.68;;
13609;SDS011;6876;50.788;4.940;2023-08-12T10:27:06;1.05;;;0.73;;
13609;SDS011;6876;50.788;4.940;2023-08-12T10:29:55;1.38;;;0.70;;
13609;SDS011;6876;50.788;4.940;2023-08-12T10:32:43;2.15;;;0.80;;
13609;SDS011;6876;50.788;4.940;2023-08-12T10:35:41;2.05;;;0.80;;
13609;SDS011;6876;50.788;4.940;2023-08-12T10:38:31;1.10;;;0.90;;
13609;SDS011;6876;50.788;4.940;2023-08-12T10:41:20;2.47;;;1.15;;
13609;SDS011;6876;50.788;4.940;2023-08-12T10:44:08;2.42;;;1.10;;
13609;SDS011;6876;50.788;4.940;2023-08-12T10:46:55;16.58;;;2.88;;
13609;SDS011;6876;50.788;4.940;2023-08-12T10:49:47;2.60;;;1.52;;
13609;SDS011;6876;50.788;4.940;2023-08-12T10:52:35;2.67;;;1.50;;
13609;SDS011;6876;50.788;4.940;2023-08-12T10:55:25;1.98;;;1.60;;
13609;SDS011;6876;50.788;4.940;2023-08-12T10:58:13;2.80;;;1.40;;
13609;SDS011;6876;50.788;4.940;2023-08-12T11:01:13;2.17;;;1.30;;
13609;SDS011;6876;50.788;4.940;2023-08-12T11:04:10;1.52;;;1.42;;
13609;SDS011;6876;50.788;4.940;2023-08-12T11:07:13;2.33;;;1.45;;
13609;SDS011;6876;50.788;4.940;2023-08-12T11:10:05;2.17;;;1.23;;
13609;SDS011;6876;50.788;4.940;2023-08-12T11:12:58;24.98;;;3.60;;
13609;SDS011;6876;50.788;4.940;2023-08-12T11:15:47;5.47;;;1.30;;
13609;SDS011;6876;50.788;4.940;2023-08-12T11:18:35;2.55;;;0.80;;
13609;SDS011;6876;50.788;4.940;2023-08-12T11:21:23;2.35;;;1.35;;
13609;SDS011;6876;50.788;4.940;2023-08-12T11:24:12;2.38;;;1.02;;
13609;SDS011;6876;50.788;4.940;2023-08-12T11:27:00;2.63;;;1.02;;
13609;SDS011;6876;50.788;4.940;2023-08-12T11:29:50;1.85;;;1.23;;
13609;SDS011;6876;50.788;4.940;2023-08-12T11:32:38;1.52;;;0.90;;
13609;SDS011;6876;50.788;4.940;2023-08-12T11:35:26;4.90;;;1.30;;
13609;SDS011;6876;50.788;4.940;2023-08-12T11:38:13;1.08;;;0.95;;
13609;SDS011;6876;50.788;4.940;2023-08-12T11:41:02;2.58;;;1.20;;
13609;SDS011;6876;50.788;4.940;2023-08-12T11:43:50;2.97;;;0.93;;
13609;SDS011;6876;50.788;4.940;2023-08-12T11:46:38;3.70;;;1.13;;
13609;SDS011;6876;50.788;4.940;2023-08-12T11:49:26;16.48;;;2.67;;
13609;SDS011;6876;50.788;4.940;2023-08-12T11:52:13;1.65;;;0.88;;
13609;SDS011;6876;50.788;4.940;2023-08-12T11:55:01;3.83;;;1.08;;
13609;SDS011;6876;50.788;4.940;2023-08-12T11:57:50;11.27;;;2.00;;
13609;SDS011;6876;50.788;4.940;2023-08-12T12:00:38;2.58;;;1.38;;
13609;SDS011;6876;50.788;4.940;2023-08-12T12:03:28;3.85;;;1.40;;
13609;SDS011;6876;50.788;4.940;2023-08-12T12:06:17;3.13;;;1.40;;
13609;SDS011;6876;50.788;4.940;2023-08-12T12:09:05;11.80;;;2.45;;
13609;SDS011;6876;50.788;4.940;2023-08-12T12:11:55;5.28;;;1.73;;
13609;SDS011;6876;50.788;4.940;2023-08-12T12:14:42;3.50;;;1.40;;
13609;SDS011;6876;50.788;4.940;2023-08-12T12:17:29;3.15;;;1.30;;
13609;SDS011;6876;50.788;4.940;2023-08-12T12:20:19;3.22;;;1.38;;
13609;SDS011;6876;50.788;4.940;2023-08-12T12:23:08;3.10;;;1.38;;
13609;SDS011;6876;50.788;4.940;2023-08-12T12:25:58;3.97;;;1.40;;
13609;SDS011;6876;50.788;4.940;2023-08-12T12:28:47;4.28;;;1.63;;
13609;SDS011;6876;50.788;4.940;2023-08-12T12:31:35;3.92;;;1.42;;
13609;SDS011;6876;50.788;4.940;2023-08-12T12:34:22;4.32;;;1.55;;
13609;SDS011;6876;50.788;4.940;2023-08-12T12:37:11;3.35;;;1.35;;
13609;SDS011;6876;50.788;4.940;2023-08-12T12:39:58;5.57;;;1.73;;
13609;SDS011;6876;50.788;4.940;2023-08-12T12:42:46;1.80;;;1.30;;
13609;SDS011;6876;50.788;4.940;2023-08-12T12:45:33;4.38;;;1.80;;
13609;SDS011;6876;50.788;4.940;2023-08-12T12:48:20;2.42;;;1.48;;
13609;SDS011;6876;50.788;4.940;2023-08-12T12:51:08;3.58;;;1.77;;
13609;SDS011;6876;50.788;4.940;2023-08-12T12:53:56;3.50;;;1.80;;
13609;SDS011;6876;50.788;4.940;2023-08-12T12:56:44;4.30;;;1.92;;
13609;SDS011;6876;50.788;4.940;2023-08-12T12:59:31;6.07;;;1.98;;
13609;SDS011;6876;50.788;4.940;2023-08-12T13:02:19;4.00;;;2.08;;
13609;SDS011;6876;50.788;4.940;2023-08-12T13:05:06;4.05;;;1.92;;
13609;SDS011;6876;50.788;4.940;2023-08-12T13:07:54;5.20;;;1.90;;
13609;SDS011;6876;50.788;4.940;2023-08-12T13:10:42;4.68;;;1.70;;
13609;SDS011;6876;50.788;4.940;2023-08-12T13:13:30;2.65;;;1.73;;
13609;SDS011;6876;50.788;4.940;2023-08-12T13:16:17;4.80;;;1.77;;
13609;SDS011;6876;50.788;4.940;2023-08-12T13:19:05;4.63;;;1.92;;
13609;SDS011;6876;50.788;4.940;2023-08-12T13:21:52;5.30;;;1.80;;
13609;SDS011;6876;50.788;4.940;2023-08-12T13:24:39;3.47;;;1.55;;
13609;SDS011;6876;50.788;4.940;2023-08-12T13:27:28;2.20;;;1.40;;
13609;SDS011;6876;50.788;4.940;2023-08-12T13:30:15;3.10;;;1.40;;
13609;SDS011;6876;50.788;4.940;2023-08-12T13:33:03;2.20;;;1.40;;
13609;SDS011;6876;50.788;4.940;2023-08-12T13:35:51;3.38;;;1.52;;
13609;SDS011;6876;50.788;4.940;2023-08-12T13:38:38;3.15;;;1.58;;
13609;SDS011;6876;50.788;4.940;2023-08-12T13:41:25;2.67;;;1.50;;
13609;SDS011;6876;50.788;4.940;2023-08-12T13:44:14;4.45;;;1.63;;
13609;SDS011;6876;50.788;4.940;2023-08-12T13:47:01;4.05;;;1.40;;
13609;SDS011;6876;50.788;4.940;2023-08-12T13:49:49;2.75;;;1.58;;
13609;SDS011;6876;50.788;4.940;2023-08-12T13:52:36;2.15;;;1.50;;
13609;SDS011;6876;50.788;4.940;2023-08-12T13:55:24;4.05;;;1.50;;
13609;SDS011;6876;50.788;4.940;2023-08-12T13:58:11;4.80;;;1.63;;
13609;SDS011;6876;50.788;4.940;2023-08-12T14:01:00;3.83;;;1.35;;
13609;SDS011;6876;50.788;4.940;2023-08-12T14:03:48;4.47;;;1.63;;
13609;SDS011;6876;50.788;4.940;2023-08-12T14:06:35;5.18;;;1.70;;
13609;SDS011;6876;50.788;4.940;2023-08-12T14:09:22;4.22;;;1.30;;
13609;SDS011;6876;50.788;4.940;2023-08-12T14:12:09;3.38;;;1.52;;
13609;SDS011;6876;50.788;4.940;2023-08-12T14:14:57;3.67;;;1.45;;
13609;SDS011;6876;50.788;4.940;2023-08-12T14:17:45;2.58;;;1.30;;
13609;SDS011;6876;50.788;4.940;2023-08-12T14:20:33;4.78;;;1.63;;
13609;SDS011;6876;50.788;4.940;2023-08-12T14:23:20;3.88;;;1.75;;
13609;SDS011;6876;50.788;4.940;2023-08-12T14:26:08;4.30;;;1.55;;
13609;SDS011;6876;50.788;4.940;2023-08-12T14:28:55;2.75;;;1.50;;
13609;SDS011;6876;50.788;4.940;2023-08-12T14:31:43;4.05;;;1.33;;
13609;SDS011;6876;50.788;4.940;2023-08-12T14:34:31;2.40;;;1.58;;
13609;SDS011;6876;50.788;4.940;2023-08-12T14:37:19;4.20;;;1.58;;
13609;SDS011;6876;50.788;4.940;2023-08-12T14:40:07;4.28;;;1.30;;
13609;SDS011;6876;50.788;4.940;2023-08-12T14:42:55;4.70;;;1.60;;
13609;SDS011;6876;50.788;4.940;2023-08-12T14:45:44;2.75;;;1.60;;
13609;SDS011;6876;50.788;4.940;2023-08-12T14:48:31;2.10;;;1.33;;
13609;SDS011;6876;50.788;4.940;2023-08-12T14:51:20;14.32;;;3.08;;
13609;SDS011;6876;50.788;4.940;2023-08-12T14:54:07;5.47;;;1.40;;
13609;SDS011;6876;50.788;4.940;2023-08-12T14:56:56;2.90;;;1.15;;
13609;SDS011;6876;50.788;4.940;2023-08-12T14:59:43;2.55;;;1.38;;
13609;SDS011;6876;50.788;4.940;2023-08-12T15:02:35;3.30;;;1.40;;
13609;SDS011;6876;50.788;4.940;2023-08-12T15:05:23;5.30;;;1.77;;
13609;SDS011;6876;50.788;4.940;2023-08-12T15:08:11;4.05;;;1.70;;
13609;SDS011;6876;50.788;4.940;2023-08-12T15:10:59;3.42;;;1.80;;
13609;SDS011;6876;50.788;4.940;2023-08-12T15:13:46;5.50;;;1.90;;
13609;SDS011;6876;50.788;4.940;2023-08-12T15:16:33;4.28;;;1.60;;
13609;SDS011;6876;50.788;4.940;2023-08-12T15:19:22;6.75;;;1.58;;
13609;SDS011;6876;50.788;4.940;2023-08-12T15:22:09;7.53;;;1.60;;
13609;SDS011;6876;50.788;4.940;2023-08-12T15:24:57;4.93;;;1.60;;
13609;SDS011;6876;50.788;4.940;2023-08-12T15:27:45;3.53;;;1.25;;
13609;SDS011;6876;50.788;4.940;2023-08-12T15:30:32;4.00;;;1.40;;
13609;SDS011;6876;50.788;4.940;2023-08-12T15:33:20;4.10;;;1.83;;
13609;SDS011;6876;50.788;4.940;2023-08-12T15:36:07;2.55;;;1.60;;
13609;SDS011;6876;50.788;4.940;2023-08-12T15:38:54;4.05;;;1.80;;
13609;SDS011;6876;50.788;4.940;2023-08-12T15:41:43;4.85;;;1.75;;
13609;SDS011;6876;50.788;4.940;2023-08-12T15:44:31;4.53;;;1.60;;
13609;SDS011;6876;50.788;4.940;2023-08-12T15:47:18;3.45;;;1.85;;
13609;SDS011;6876;50.788;4.940;2023-08-12T15:50:06;5.00;;;2.10;;
13609;SDS011;6876;50.788;4.940;2023-08-12T15:52:54;4.22;;;2.10;;
13609;SDS011;6876;50.788;4.940;2023-08-12T15:55:41;5.32;;;2.63;;
13609;SDS011;6876;50.788;4.940;2023-08-12T15:58:30;4.75;;;2.47;;
13609;SDS011;6876;50.788;4.940;2023-08-12T16:01:17;4.65;;;2.10;;
13609;SDS011;6876;50.788;4.940;2023-08-12T16:04:06;4.35;;;1.80;;
13609;SDS011;6876;50.788;4.940;2023-08-12T16:06:53;3.33;;;1.50;;
13609;SDS011;6876;50.788;4.940;2023-08-12T16:09:41;3.65;;;1.63;;
13609;SDS011;6876;50.788;4.940;2023-08-12T16:12:28;2.42;;;1.40;;
13609;SDS011;6876;50.788;4.940;2023-08-12T16:15:17;3.65;;;1.60;;
13609;SDS011;6876;50.788;4.940;2023-08-12T16:18:05;4.75;;;1.67;;
13609;SDS011;6876;50.788;4.940;2023-08-12T16:20:53;2.95;;;1.70;;
13609;SDS011;6876;50.788;4.940;2023-08-12T16:23:41;3.83;;;1.73;;
13609;SDS011;6876;50.788;4.940;2023-08-12T16:26:29;4.57;;;1.60;;
13609;SDS011;6876;50.788;4.940;2023-08-12T16:29:17;4.88;;;1.70;;
13609;SDS011;6876;50.788;4.940;2023-08-12T16:32:06;2.20;;;1.52;;
13609;SDS011;6876;50.788;4.940;2023-08-12T16:34:53;3.47;;;1.65;;
13609;SDS011;6876;50.788;4.940;2023-08-12T16:37:41;4.18;;;1.70;;
13609;SDS011;6876;50.788;4.940;2023-08-12T16:40:29;4.03;;;1.75;;
13609;SDS011;6876;50.788;4.940;2023-08-12T16:43:18;3.20;;;1.80;;
13609;SDS011;6876;50.788;4.940;2023-08-12T16:46:08;4.90;;;1.88;;
13609;SDS011;6876;50.788;4.940;2023-08-12T16:48:57;3.92;;;1.67;;
13609;SDS011;6876;50.788;4.940;2023-08-12T16:51:46;3.75;;;1.63;;
13609;SDS011;6876;50.788;4.940;2023-08-12T16:54:34;4.25;;;1.98;;
13609;SDS011;6876;50.788;4.940;2023-08-12T16:57:22;5.47;;;2.08;;
13609;SDS011;6876;50.788;4.940;2023-08-12T17:00:10;6.15;;;2.00;;